Search for airport 
image banner adimage banner adimage banner ad
image banner ad

40PA - Cinram Group Inc

Located in Olyphant, United States

ICAO - 40PA, IATA -

Data provided by Airmate  

General information

Coordinates: N41°27'35" W75°34'59"
Elevation is 908 feet MSL.
Magnetic variation is -12° East
View others Airports in Pennsylvania

Operational data

Special qualification required
Current time UTC:
Current local time:
Weather at : KAVP - Wilkes-Barre/Scranton Intl ( 18 km )
METAR: KAVP 131954Z 23005KT 10SM BKN050 24/18 A2988 RMK AO2 SLP110 T02440178
TAF: KAVP 131740Z 1318/1418 24006KT P6SM SCT018 BKN035 TEMPO 1318/1319 BKN018 BKN035 FM131900 23006KT P6SM SCT035 FM132200 19005KT P6SM VCTS SCT035CB TEMPO 1322/1402 3SM TSRA BR OVC030CB FM140200 17008KT 6SM -SHRA BR BKN016 OVC025 FM140800 20004KT 5SM BR VCSH BKN007 FM141500 23005KT P6SM VCSH BKN010
View NOTAMs / SUP AIP / TFR affecting this airport [VIEW]
Communications frequencies: [VIEW]

Runways:

Airport contact information

Address: Olyphant United States

Satellite view of 40PA